ADDS METAR Data INFO
IDs: Format: Raw Decoded Include TAF

Data at: 1052 UTC 22 Apr 2018

KW22 221035Z AUTO 00000KT 10SM FEW095 06/M04 A3027 RMK AO2
KW22 221015Z AUTO 00000KT 10SM BKN090 07/M05 A3027 RMK AO2
KW22 220955Z AUTO 00000KT 10SM FEW075 OVC090 05/M02 A3026 RMK AO2
KW22 220935Z AUTO 13004KT 10SM FEW075 BKN090 OVC110 06/M03 A3025 RMK AO2
KW22 220915Z AUTO 00000KT 10SM OVC110 07/M04 A3027 RMK AO2
KW22 220855Z AUTO 00000KT 10SM OVC110 07/M04 A3027 RMK AO2
KW22 220835Z AUTO 00000KT 10SM OVC110 07/M05 A3027 RMK AO2
KW22 220815Z AUTO 09004KT 10SM OVC110 07/M04 A3027 RMK AO2
KW22 220755Z AUTO 10004KT 10SM OVC100 08/M06 A3027 RMK AO2
KW22 220735Z AUTO 00000KT 10SM BKN100 08/M06 A3028 RMK AO2
KW22 220715Z AUTO 36003KT 10SM SCT095 SCT120 07/M04 A3029 RMK AO2
KW22 220655Z AUTO 05004KT 10SM FEW110 08/M06 A3028 RMK AO2
KW22 220635Z AUTO 05003KT 10SM FEW110 08/M06 A3029 RMK AO2
KW22 220615Z AUTO 05003KT 10SM FEW110 09/M06 A3030 RMK AO2
KW22 220555Z AUTO 07006KT 10SM CLR 09/M06 A3030 RMK AO2
KW22 220535Z AUTO 05003KT 10SM CLR 09/M06 A3031 RMK AO2
KW22 220515Z AUTO 01005KT 10SM CLR 09/M06 A3032 RMK AO2
KW22 220455Z AUTO 01003KT 10SM SCT100 10/M07 A3032 RMK AO2
KW22 220435Z AUTO 05004KT 10SM OVC100 10/M07 A3031 RMK AO2
KW22 220415Z AUTO 04004KT 10SM BKN100 BKN120 10/M07 A3032 RMK AO2
KW22 220355Z AUTO 06005KT 10SM BKN110 10/M07 A3032 RMK AO2
KW22 220335Z AUTO 04006KT 10SM SCT120 10/M07 A3033 RMK AO2
KW22 220315Z AUTO 03005KT 10SM FEW120 10/M07 A3033 RMK AO2
KW22 220255Z AUTO 04004KT 10SM FEW110 11/M08 A3032 RMK AO2
KW22 220235Z AUTO 04004KT 10SM FEW110 11/M08 A3033 RMK AO2
KW22 220215Z AUTO 05005KT 10SM FEW120 12/M08 A3033 RMK AO2
KW22 220155Z AUTO 03007KT 10SM FEW120 12/M08 A3033 RMK AO2
KW22 220135Z AUTO 04009KT 10SM SCT120 12/M09 A3032 RMK AO2
KW22 220115Z AUTO 03006KT 10SM FEW120 12/M08 A3032 RMK AO2
KW22 220055Z AUTO 03004KT 10SM CLR 13/M08 A3032 RMK AO2
KW22 220035Z AUTO 03006KT 10SM CLR 13/M09 A3031 RMK AO2
KW22 220015Z AUTO 03005KT 10SM CLR 13/M08 A3030 RMK AO2
KW22 212355Z AUTO 03003KT 10SM CLR 14/M10 A3029 RMK AO2
KW22 212335Z AUTO 04005KT 10SM CLR 14/M10 A3029 RMK AO2
KW22 212315Z AUTO 02004KT 10SM CLR 15/M11 A3029 RMK AO2
KW22 212255Z AUTO 03004KT 10SM CLR 15/M10 A3030 RMK AO2
KW22 212235Z AUTO 03003KT 10SM CLR 15/M10 A3030 RMK AO2
KW22 212215Z AUTO 36004KT 10SM CLR 16/M11 A3030 RMK AO2
KW22 212155Z AUTO VRB04KT 10SM CLR 16/M10 A3031 RMK AO2
KW22 212135Z AUTO VRB05KT 10SM CLR 17/M09 A3030 RMK AO2
KW22 212115Z AUTO VRB05KT 10SM CLR 17/M09 A3030 RMK AO2
KW22 212055Z AUTO 31004G10KT 10SM CLR 16/M11 A3030 RMK AO2
KW22 212035Z AUTO VRB04KT 10SM CLR 17/M10 A3031 RMK AO2
KW22 212015Z AUTO 34005KT 10SM CLR 17/M11 A3031 RMK AO2
KW22 211955Z AUTO VRB03G10KT 10SM CLR 17/M10 A3031 RMK AO2
KW22 211935Z AUTO VRB05KT 10SM CLR 17/M08 A3031 RMK AO2
KW22 211915Z AUTO 00000KT 10SM CLR 16/M09 A3032 RMK AO2
KW22 211855Z AUTO VRB05KT 10SM CLR 16/M10 A3033 RMK AO2
KW22 211835Z AUTO VRB04G10KT 10SM CLR 16/M10 A3034 RMK AO2
KW22 211815Z AUTO 28005KT 10SM CLR 15/M09 A3035 RMK AO2
KW22 211755Z AUTO 00000G10KT 10SM CLR 15/M08 A3035 RMK AO2
KW22 211735Z AUTO 21005KT 10SM CLR 15/M07 A3036 RMK AO2
KW22 211715Z AUTO VRB03KT 10SM CLR 14/M08 A3037 RMK AO2
KW22 211655Z AUTO 00000KT 10SM CLR 14/M08 A3037 RMK AO2
KW22 211635Z AUTO VRB03KT 10SM CLR 13/M08 A3038 RMK AO2
KW22 211615Z AUTO 32004KT 10SM CLR 13/M09 A3039 RMK AO2
KW22 211555Z AUTO 00000KT 10SM CLR 12/M08 A3040 RMK AO2
KW22 211535Z AUTO 30005KT 10SM CLR 11/M08 A3041 RMK AO2
KW22 211515Z AUTO 32004KT 10SM CLR 11/M07 A3042 RMK AO2
KW22 211455Z AUTO 000KT 10SM CLR 10/M06 A3042 RMK AO2
KW22 211435Z AUTO 00000KT 10SM CLR 09/M07 A3043 RMK AO2
KW22 211415Z AUTO 00000KT 10SM CLR 08/M02 A3043 RMK AO2
KW22 211355Z AUTO 00000KT 10SM CLR 07/M03 A3043 RMK AO2
KW22 211335Z AUTO 00000KT 10SM CLR 06/M01 A3043 RMK AO2
KW22 211315Z AUTO 00000KT 10SM CLR 06/M03 A3044 RMK AO2
KW22 211255Z AUTO 00000KT 10SM CLR 03/M02 A3044 RMK AO2
KW22 211235Z AUTO 00000KT 10SM CLR 02/M03 A3043 RMK AO2
KW22 211215Z AUTO 16004KT 10SM CLR M00/M03 A3043 RMK AO2
KW22 211155Z AUTO 00000KT 10SM CLR M00/M03 A3043 RMK AO2
KW22 211135Z AUTO 00000KT 10SM CLR M01/M03 A3043 RMK AO2
KW22 211115Z AUTO 00000KT 10SM CLR M02/M03 A3043 RMK AO2
KW22 211055Z AUTO 00000KT 10SM CLR M02/M03 A3042 RMK AO2